sensor_id;sensor_type;location;lat;lon;timestamp;temperature;humidity
21417;DHT22;10869;52.238;10.716;2023-04-07T03:21:07;5.50;81.00
21417;DHT22;10869;52.238;10.716;2023-04-07T05:38:43;5.90;79.90
21417;DHT22;10869;52.238;10.716;2023-04-07T05:46:28;6.00;79.30
21417;DHT22;10869;52.238;10.716;2023-04-07T05:54:14;6.40;79.00
21417;DHT22;10869;52.238;10.716;2023-04-07T05:56:48;6.50;78.30
21417;DHT22;10869;52.238;10.716;2023-04-07T05:59:14;6.60;77.60
21417;DHT22;10869;52.238;10.716;2023-04-07T06:01:43;6.80;77.80
21417;DHT22;10869;52.238;10.716;2023-04-07T06:04:21;6.90;77.50
21417;DHT22;10869;52.238;10.716;2023-04-07T06:06:56;7.00;77.90
21417;DHT22;10869;52.238;10.716;2023-04-07T06:13:06;7.40;77.30
21417;DHT22;10869;52.238;10.716;2023-04-07T06:15:32;7.60;76.90
21417;DHT22;10869;52.238;10.716;2023-04-07T06:17:59;7.80;75.90
21417;DHT22;10869;52.238;10.716;2023-04-07T06:20:33;8.00;75.60
21417;DHT22;10869;52.238;10.716;2023-04-07T06:23:08;8.30;75.00
21417;DHT22;10869;52.238;10.716;2023-04-07T06:28:10;8.60;74.50
21417;DHT22;10869;52.238;10.716;2023-04-07T06:30:37;8.70;73.50
21417;DHT22;10869;52.238;10.716;2023-04-07T06:44:53;9.20;72.30
21417;DHT22;10869;52.238;10.716;2023-04-07T06:47:23;9.30;73.20
21417;DHT22;10869;52.238;10.716;2023-04-07T06:49:53;9.30;73.10
21417;DHT22;10869;52.238;10.716;2023-04-07T06:58:04;9.40;73.00
21417;DHT22;10869;52.238;10.716;2023-04-07T07:00:36;9.40;73.00
21417;DHT22;10869;52.238;10.716;2023-04-07T07:03:18;9.40;73.50
21417;DHT22;10869;52.238;10.716;2023-04-07T07:05:54;9.30;72.00
21417;DHT22;10869;52.238;10.716;2023-04-07T07:08:31;9.20;73.40
21417;DHT22;10869;52.238;10.716;2023-04-07T07:11:02;9.20;72.90
21417;DHT22;10869;52.238;10.716;2023-04-07T07:16:03;9.40;73.30
21417;DHT22;10869;52.238;10.716;2023-04-07T07:18:32;9.40;72.10
21417;DHT22;10869;52.238;10.716;2023-04-07T07:26:09;9.60;71.70
21417;DHT22;10869;52.238;10.716;2023-04-07T07:28:35;9.60;72.80
21417;DHT22;10869;52.238;10.716;2023-04-07T07:31:09;9.40;72.10
21417;DHT22;10869;52.238;10.716;2023-04-07T07:54:37;9.80;72.90
21417;DHT22;10869;52.238;10.716;2023-04-07T07:57:11;9.80;73.40
21417;DHT22;10869;52.238;10.716;2023-04-07T07:59:45;9.70;73.50
21417;DHT22;10869;52.238;10.716;2023-04-07T08:02:32;10.00;72.60
21417;DHT22;10869;52.238;10.716;2023-04-07T08:08:26;10.30;72.10
21417;DHT22;10869;52.238;10.716;2023-04-07T08:10:57;10.10;71.60
21417;DHT22;10869;52.238;10.716;2023-04-07T08:13:29;10.10;72.80
21417;DHT22;10869;52.238;10.716;2023-04-07T08:16:11;10.50;71.30
21417;DHT22;10869;52.238;10.716;2023-04-07T08:18:50;10.60;71.50
21417;DHT22;10869;52.238;10.716;2023-04-07T08:21:31;10.70;71.40
21417;DHT22;10869;52.238;10.716;2023-04-07T08:23:57;10.80;70.30
21417;DHT22;10869;52.238;10.716;2023-04-07T08:26:23;10.50;71.40
21417;DHT22;10869;52.238;10.716;2023-04-07T08:28:49;10.50;71.00
21417;DHT22;10869;52.238;10.716;2023-04-07T08:31:18;10.50;72.10
21417;DHT22;10869;52.238;10.716;2023-04-07T08:33:44;10.60;72.10
21417;DHT22;10869;52.238;10.716;2023-04-07T08:36:11;10.90;71.20
21417;DHT22;10869;52.238;10.716;2023-04-07T08:38:37;11.10;69.60
21417;DHT22;10869;52.238;10.716;2023-04-07T08:41:12;11.10;70.60
21417;DHT22;10869;52.238;10.716;2023-04-07T08:43:38;11.30;69.90
21417;DHT22;10869;52.238;10.716;2023-04-07T08:46:08;11.10;69.40
21417;DHT22;10869;52.238;10.716;2023-04-07T08:48:37;10.80;69.80
21417;DHT22;10869;52.238;10.716;2023-04-07T08:51:07;10.90;69.00
21417;DHT22;10869;52.238;10.716;2023-04-07T08:53:43;11.00;70.00
21417;DHT22;10869;52.238;10.716;2023-04-07T08:56:12;11.20;70.00
21417;DHT22;10869;52.238;10.716;2023-04-07T08:58:39;11.20;71.60
21417;DHT22;10869;52.238;10.716;2023-04-07T09:01:05;11.50;69.20
21417;DHT22;10869;52.238;10.716;2023-04-07T09:03:32;11.50;69.10
21417;DHT22;10869;52.238;10.716;2023-04-07T09:06:02;11.50;70.60
21417;DHT22;10869;52.238;10.716;2023-04-07T09:08:28;11.70;72.00
21417;DHT22;10869;52.238;10.716;2023-04-07T09:10:56;11.90;70.80
21417;DHT22;10869;52.238;10.716;2023-04-07T09:13:27;12.00;69.80
21417;DHT22;10869;52.238;10.716;2023-04-07T09:15:53;12.10;69.30
21417;DHT22;10869;52.238;10.716;2023-04-07T09:18:19;12.20;69.20
21417;DHT22;10869;52.238;10.716;2023-04-07T09:20:58;12.40;69.10
21417;DHT22;10869;52.238;10.716;2023-04-07T09:23:33;12.20;68.00
21417;DHT22;10869;52.238;10.716;2023-04-07T09:26:00;11.90;70.10
21417;DHT22;10869;52.238;10.716;2023-04-07T09:31:49;11.80;72.00
21417;DHT22;10869;52.238;10.716;2023-04-07T09:34:42;11.90;72.10
21417;DHT22;10869;52.238;10.716;2023-04-07T09:37:21;11.90;72.50
21417;DHT22;10869;52.238;10.716;2023-04-07T09:39:51;12.20;72.40
21417;DHT22;10869;52.238;10.716;2023-04-07T09:42:19;12.30;71.90
21417;DHT22;10869;52.238;10.716;2023-04-07T09:44:44;12.30;71.90
21417;DHT22;10869;52.238;10.716;2023-04-07T09:47:10;12.20;71.60
21417;DHT22;10869;52.238;10.716;2023-04-07T09:49:51;12.50;72.20
21417;DHT22;10869;52.238;10.716;2023-04-07T09:55:40;12.60;72.50
21417;DHT22;10869;52.238;10.716;2023-04-07T09:58:07;12.80;73.30
21417;DHT22;10869;52.238;10.716;2023-04-07T10:00:34;12.70;72.40
21417;DHT22;10869;52.238;10.716;2023-04-07T10:03:02;12.60;73.70
21417;DHT22;10869;52.238;10.716;2023-04-07T10:05:28;12.60;73.30
21417;DHT22;10869;52.238;10.716;2023-04-07T10:11:17;12.60;72.00
21417;DHT22;10869;52.238;10.716;2023-04-07T10:13:43;12.50;71.00
21417;DHT22;10869;52.238;10.716;2023-04-07T10:16:10;12.40;72.60
21417;DHT22;10869;52.238;10.716;2023-04-07T10:21:58;12.60;70.90
21417;DHT22;10869;52.238;10.716;2023-04-07T10:27:08;12.70;72.10
21417;DHT22;10869;52.238;10.716;2023-04-07T10:29:41;12.80;71.50
21417;DHT22;10869;52.238;10.716;2023-04-07T10:32:07;12.90;69.80
21417;DHT22;10869;52.238;10.716;2023-04-07T10:40:30;13.30;70.10
21417;DHT22;10869;52.238;10.716;2023-04-07T10:46:18;13.10;70.30
21417;DHT22;10869;52.238;10.716;2023-04-07T10:49:07;13.20;68.90
21417;DHT22;10869;52.238;10.716;2023-04-07T10:51:34;13.40;67.50
21417;DHT22;10869;52.238;10.716;2023-04-07T10:57:23;13.50;68.80
21417;DHT22;10869;52.238;10.716;2023-04-07T11:05:19;14.10;69.10
21417;DHT22;10869;52.238;10.716;2023-04-07T11:11:13;13.90;66.00
21417;DHT22;10869;52.238;10.716;2023-04-07T11:13:49;13.90;67.20
21417;DHT22;10869;52.238;10.716;2023-04-07T11:16:17;14.00;68.60
21417;DHT22;10869;52.238;10.716;2023-04-07T11:34:35;14.80;66.30
21417;DHT22;10869;52.238;10.716;2023-04-07T11:37:26;14.70;65.50
21417;DHT22;10869;52.238;10.716;2023-04-07T11:39:57;14.90;66.30
21417;DHT22;10869;52.238;10.716;2023-04-07T11:42:34;15.00;65.70
21417;DHT22;10869;52.238;10.716;2023-04-07T11:45:00;14.90;66.30
21417;DHT22;10869;52.238;10.716;2023-04-07T11:50:48;14.80;65.20
21417;DHT22;10869;52.238;10.716;2023-04-07T11:56:49;14.50;65.00
21417;DHT22;10869;52.238;10.716;2023-04-07T11:59:24;14.20;68.10
21417;DHT22;10869;52.238;10.716;2023-04-07T12:01:51;14.40;66.80
21417;DHT22;10869;52.238;10.716;2023-04-07T12:04:25;14.50;65.50
21417;DHT22;10869;52.238;10.716;2023-04-07T12:06:51;14.50;67.50
21417;DHT22;10869;52.238;10.716;2023-04-07T12:09:28;14.40;64.60
21417;DHT22;10869;52.238;10.716;2023-04-07T12:11:55;14.50;66.50
21417;DHT22;10869;52.238;10.716;2023-04-07T12:14:23;14.50;66.10
21417;DHT22;10869;52.238;10.716;2023-04-07T12:16:49;14.40;64.70
21417;DHT22;10869;52.238;10.716;2023-04-07T12:19:15;14.50;66.10
21417;DHT22;10869;52.238;10.716;2023-04-07T12:21:41;14.50;66.80
21417;DHT22;10869;52.238;10.716;2023-04-07T12:24:08;14.70;65.60
21417;DHT22;10869;52.238;10.716;2023-04-07T12:26:34;14.90;65.90
21417;DHT22;10869;52.238;10.716;2023-04-07T12:28:59;15.00;67.50
21417;DHT22;10869;52.238;10.716;2023-04-07T12:31:30;14.90;66.70
21417;DHT22;10869;52.238;10.716;2023-04-07T12:34:04;14.70;65.30
21417;DHT22;10869;52.238;10.716;2023-04-07T12:36:30;14.50;65.80
21417;DHT22;10869;52.238;10.716;2023-04-07T12:38:56;14.70;67.40
21417;DHT22;10869;52.238;10.716;2023-04-07T12:41:24;14.80;64.10
21417;DHT22;10869;52.238;10.716;2023-04-07T12:43:50;14.50;65.50
21417;DHT22;10869;52.238;10.716;2023-04-07T12:46:16;14.90;66.00
21417;DHT22;10869;52.238;10.716;2023-04-07T12:48:43;14.90;65.90
21417;DHT22;10869;52.238;10.716;2023-04-07T12:51:08;14.90;65.60
21417;DHT22;10869;52.238;10.716;2023-04-07T12:53:34;14.80;63.70
21417;DHT22;10869;52.238;10.716;2023-04-07T12:56:00;14.30;65.00
21417;DHT22;10869;52.238;10.716;2023-04-07T12:58:26;14.30;67.00
21417;DHT22;10869;52.238;10.716;2023-04-07T13:00:52;14.60;67.20
21417;DHT22;10869;52.238;10.716;2023-04-07T13:03:18;15.00;67.00
21417;DHT22;10869;52.238;10.716;2023-04-07T13:05:44;15.30;65.80
21417;DHT22;10869;52.238;10.716;2023-04-07T13:08:09;15.40;66.30
21417;DHT22;10869;52.238;10.716;2023-04-07T13:10:35;15.20;65.40
21417;DHT22;10869;52.238;10.716;2023-04-07T13:13:01;15.00;66.90
21417;DHT22;10869;52.238;10.716;2023-04-07T13:15:27;15.00;65.30
21417;DHT22;10869;52.238;10.716;2023-04-07T13:17:53;15.20;64.30
21417;DHT22;10869;52.238;10.716;2023-04-07T13:20:19;14.80;65.20
21417;DHT22;10869;52.238;10.716;2023-04-07T13:22:45;14.50;66.00
21417;DHT22;10869;52.238;10.716;2023-04-07T13:25:12;14.60;67.50
21417;DHT22;10869;52.238;10.716;2023-04-07T13:27:37;14.70;66.90
21417;DHT22;10869;52.238;10.716;2023-04-07T13:30:07;14.90;66.50
21417;DHT22;10869;52.238;10.716;2023-04-07T13:32:32;14.80;67.20
21417;DHT22;10869;52.238;10.716;2023-04-07T13:34:58;15.00;68.40
21417;DHT22;10869;52.238;10.716;2023-04-07T13:37:24;14.90;67.00
21417;DHT22;10869;52.238;10.716;2023-04-07T13:39:51;14.80;67.50
21417;DHT22;10869;52.238;10.716;2023-04-07T13:42:16;14.70;67.30
21417;DHT22;10869;52.238;10.716;2023-04-07T13:44:43;14.60;68.60
21417;DHT22;10869;52.238;10.716;2023-04-07T13:47:14;14.60;70.10
21417;DHT22;10869;52.238;10.716;2023-04-07T13:49:47;14.90;67.20
21417;DHT22;10869;52.238;10.716;2023-04-07T13:52:14;14.90;68.10
21417;DHT22;10869;52.238;10.716;2023-04-07T13:54:41;14.80;66.70
21417;DHT22;10869;52.238;10.716;2023-04-07T13:57:07;14.90;68.40
21417;DHT22;10869;52.238;10.716;2023-04-07T13:59:32;14.90;66.50
21417;DHT22;10869;52.238;10.716;2023-04-07T14:01:58;14.80;68.20
21417;DHT22;10869;52.238;10.716;2023-04-07T14:04:24;14.90;67.60
21417;DHT22;10869;52.238;10.716;2023-04-07T14:10:12;14.50;67.20
21417;DHT22;10869;52.238;10.716;2023-04-07T14:12:38;14.30;66.40
21417;DHT22;10869;52.238;10.716;2023-04-07T14:15:04;13.80;66.70
21417;DHT22;10869;52.238;10.716;2023-04-07T14:17:30;14.00;68.30
21417;DHT22;10869;52.238;10.716;2023-04-07T14:23:20;14.10;67.20
21417;DHT22;10869;52.238;10.716;2023-04-07T14:25:46;14.10;68.90
21417;DHT22;10869;52.238;10.716;2023-04-07T14:28:12;14.00;68.10
21417;DHT22;10869;52.238;10.716;2023-04-07T14:30:38;14.10;68.50
21417;DHT22;10869;52.238;10.716;2023-04-07T14:33:04;14.30;69.50
21417;DHT22;10869;52.238;10.716;2023-04-07T14:35:30;14.20;68.80
21417;DHT22;10869;52.238;10.716;2023-04-07T14:37:56;14.30;68.90
21417;DHT22;10869;52.238;10.716;2023-04-07T14:40:21;14.30;69.50
21417;DHT22;10869;52.238;10.716;2023-04-07T14:42:47;14.30;69.30
21417;DHT22;10869;52.238;10.716;2023-04-07T14:45:13;14.30;69.30
21417;DHT22;10869;52.238;10.716;2023-04-07T14:47:39;14.30;70.80
21417;DHT22;10869;52.238;10.716;2023-04-07T14:50:05;14.30;68.90
21417;DHT22;10869;52.238;10.716;2023-04-07T14:52:31;14.40;69.00
21417;DHT22;10869;52.238;10.716;2023-04-07T14:54:57;14.30;70.10
21417;DHT22;10869;52.238;10.716;2023-04-07T14:57:22;14.30;70.20
21417;DHT22;10869;52.238;10.716;2023-04-07T14:59:48;14.30;69.70
21417;DHT22;10869;52.238;10.716;2023-04-07T15:02:14;14.00;71.50
21417;DHT22;10869;52.238;10.716;2023-04-07T15:04:40;13.80;70.50
21417;DHT22;10869;52.238;10.716;2023-04-07T15:07:07;13.60;70.70
21417;DHT22;10869;52.238;10.716;2023-04-07T15:09:33;13.50;71.40
21417;DHT22;10869;52.238;10.716;2023-04-07T15:11:58;13.50;72.90
21417;DHT22;10869;52.238;10.716;2023-04-07T15:14:25;13.50;71.90
21417;DHT22;10869;52.238;10.716;2023-04-07T15:16:51;13.30;71.30
21417;DHT22;10869;52.238;10.716;2023-04-07T15:19:20;13.30;72.50
21417;DHT22;10869;52.238;10.716;2023-04-07T15:21:46;13.40;72.60
21417;DHT22;10869;52.238;10.716;2023-04-07T15:24:12;13.50;71.70
21417;DHT22;10869;52.238;10.716;2023-04-07T15:26:40;13.50;72.00
21417;DHT22;10869;52.238;10.716;2023-04-07T15:29:06;13.60;71.90
21417;DHT22;10869;52.238;10.716;2023-04-07T15:34:54;13.20;73.30
21417;DHT22;10869;52.238;10.716;2023-04-07T15:37:20;13.10;72.20
21417;DHT22;10869;52.238;10.716;2023-04-07T15:39:46;13.00;73.40
21417;DHT22;10869;52.238;10.716;2023-04-07T15:42:12;12.90;72.90
21417;DHT22;10869;52.238;10.716;2023-04-07T15:44:38;12.70;74.30
21417;DHT22;10869;52.238;10.716;2023-04-07T15:47:07;12.50;73.90
21417;DHT22;10869;52.238;10.716;2023-04-07T15:49:34;12.40;75.10
21417;DHT22;10869;52.238;10.716;2023-04-07T15:52:04;12.10;75.30
21417;DHT22;10869;52.238;10.716;2023-04-07T15:54:31;11.80;76.30
21417;DHT22;10869;52.238;10.716;2023-04-07T15:56:56;11.50;76.90
21417;DHT22;10869;52.238;10.716;2023-04-07T15:59:22;11.50;77.40
21417;DHT22;10869;52.238;10.716;2023-04-07T16:01:49;11.50;76.80
21417;DHT22;10869;52.238;10.716;2023-04-07T16:04:15;11.50;76.80
21417;DHT22;10869;52.238;10.716;2023-04-07T16:06:40;11.50;75.70
21417;DHT22;10869;52.238;10.716;2023-04-07T16:12:28;11.60;76.90
21417;DHT22;10869;52.238;10.716;2023-04-07T16:14:54;11.50;77.00
21417;DHT22;10869;52.238;10.716;2023-04-07T16:17:22;11.50;77.80
21417;DHT22;10869;52.238;10.716;2023-04-07T16:19:48;11.50;76.70
21417;DHT22;10869;52.238;10.716;2023-04-07T16:22:13;11.40;77.80
21417;DHT22;10869;52.238;10.716;2023-04-07T16:24:39;11.20;77.20
21417;DHT22;10869;52.238;10.716;2023-04-07T16:27:05;11.20;77.90
21417;DHT22;10869;52.238;10.716;2023-04-07T16:29:35;11.00;77.70
21417;DHT22;10869;52.238;10.716;2023-04-07T16:32:01;10.90;78.10
21417;DHT22;10869;52.238;10.716;2023-04-07T16:34:28;10.70;77.90
21417;DHT22;10869;52.238;10.716;2023-04-07T16:40:17;10.30;76.70
21417;DHT22;10869;52.238;10.716;2023-04-07T16:42:45;10.00;78.50
21417;DHT22;10869;52.238;10.716;2023-04-07T16:45:11;9.90;77.90
21417;DHT22;10869;52.238;10.716;2023-04-07T16:47:36;9.80;78.30
21417;DHT22;10869;52.238;10.716;2023-04-07T16:53:24;9.50;79.70
21417;DHT22;10869;52.238;10.716;2023-04-07T16:55:50;9.40;79.10
21417;DHT22;10869;52.238;10.716;2023-04-07T16:58:19;9.30;78.40
21417;DHT22;10869;52.238;10.716;2023-04-07T17:01:03;9.40;78.60
21417;DHT22;10869;52.238;10.716;2023-04-07T17:03:29;9.30;78.60
21417;DHT22;10869;52.238;10.716;2023-04-07T17:05:55;9.20;79.90
21417;DHT22;10869;52.238;10.716;2023-04-07T17:14:47;9.10;84.60
21417;DHT22;10869;52.238;10.716;2023-04-07T17:20:35;9.00;81.80
21417;DHT22;10869;52.238;10.716;2023-04-07T17:26:22;9.00;83.40
21417;DHT22;10869;52.238;10.716;2023-04-07T17:32:12;9.00;82.80
21417;DHT22;10869;52.238;10.716;2023-04-07T17:34:37;8.90;82.90
21417;DHT22;10869;52.238;10.716;2023-04-07T17:37:03;8.90;84.60
21417;DHT22;10869;52.238;10.716;2023-04-07T17:39:29;8.90;84.60
21417;DHT22;10869;52.238;10.716;2023-04-07T17:41:54;8.90;84.20
21417;DHT22;10869;52.238;10.716;2023-04-07T17:44:20;8.80;85.90
21417;DHT22;10869;52.238;10.716;2023-04-07T17:50:08;8.70;86.10
21417;DHT22;10869;52.238;10.716;2023-04-07T17:52:35;8.60;87.20
21417;DHT22;10869;52.238;10.716;2023-04-07T17:55:00;8.50;88.40
21417;DHT22;10869;52.238;10.716;2023-04-07T18:00:48;8.20;89.70
21417;DHT22;10869;52.238;10.716;2023-04-07T18:06:37;7.90;90.90
21417;DHT22;10869;52.238;10.716;2023-04-07T18:09:02;7.80;91.30
21417;DHT22;10869;52.238;10.716;2023-04-07T18:11:29;7.60;91.20
21417;DHT22;10869;52.238;10.716;2023-04-07T18:17:16;7.50;92.30
21417;DHT22;10869;52.238;10.716;2023-04-07T18:19:42;7.40;92.40
21417;DHT22;10869;52.238;10.716;2023-04-07T18:22:08;7.40;93.00
21417;DHT22;10869;52.238;10.716;2023-04-07T18:24:36;7.40;93.50
21417;DHT22;10869;52.238;10.716;2023-04-07T18:30:25;7.20;95.30
21417;DHT22;10869;52.238;10.716;2023-04-07T18:36:12;7.10;99.00
21417;DHT22;10869;52.238;10.716;2023-04-07T18:38:40;7.00;99.90
21417;DHT22;10869;52.238;10.716;2023-04-07T18:41:06;6.90;99.90
21417;DHT22;10869;52.238;10.716;2023-04-07T18:46:53;6.80;99.90
21417;DHT22;10869;52.238;10.716;2023-04-07T18:49:19;6.70;99.90
21417;DHT22;10869;52.238;10.716;2023-04-07T18:55:07;6.60;99.90
21417;DHT22;10869;52.238;10.716;2023-04-07T18:57:36;6.50;99.90
21417;DHT22;10869;52.238;10.716;2023-04-07T19:00:02;6.40;99.90
21417;DHT22;10869;52.238;10.716;2023-04-07T19:02:28;6.30;99.90
21417;DHT22;10869;52.238;10.716;2023-04-07T19:04:54;6.20;99.90
21417;DHT22;10869;52.238;10.716;2023-04-07T19:07:19;6.10;99.90
21417;DHT22;10869;52.238;10.716;2023-04-07T19:09:45;6.10;99.90
21417;DHT22;10869;52.238;10.716;2023-04-07T19:15:37;6.00;99.90
21417;DHT22;10869;52.238;10.716;2023-04-07T19:21:27;5.80;99.90
21417;DHT22;10869;52.238;10.716;2023-04-07T19:27:15;5.80;99.90
21417;DHT22;10869;52.238;10.716;2023-04-07T19:29:41;5.80;99.90
21417;DHT22;10869;52.238;10.716;2023-04-07T19:32:07;5.70;99.90
21417;DHT22;10869;52.238;10.716;2023-04-07T19:34:35;5.70;99.90
21417;DHT22;10869;52.238;10.716;2023-04-07T19:37:01;5.70;99.90
21417;DHT22;10869;52.238;10.716;2023-04-07T19:42:49;5.70;99.90
21417;DHT22;10869;52.238;10.716;2023-04-07T19:45:17;5.70;99.90
21417;DHT22;10869;52.238;10.716;2023-04-07T19:51:05;5.60;99.90
21417;DHT22;10869;52.238;10.716;2023-04-07T19:53:31;5.50;99.90
21417;DHT22;10869;52.238;10.716;2023-04-07T19:55:57;5.40;99.90
21417;DHT22;10869;52.238;10.716;2023-04-07T19:58:23;5.50;99.90
21417;DHT22;10869;52.238;10.716;2023-04-07T20:00:49;5.40;99.90
21417;DHT22;10869;52.238;10.716;2023-04-07T20:03:17;5.30;99.90
21417;DHT22;10869;52.238;10.716;2023-04-07T20:05:43;5.30;99.90
21417;DHT22;10869;52.238;10.716;2023-04-07T20:08:10;5.30;99.90
21417;DHT22;10869;52.238;10.716;2023-04-07T20:10:35;5.30;99.90
21417;DHT22;10869;52.238;10.716;2023-04-07T20:13:01;5.30;99.90
21417;DHT22;10869;52.238;10.716;2023-04-07T20:15:27;5.30;99.90
21417;DHT22;10869;52.238;10.716;2023-04-07T20:17:54;5.40;99.90
21417;DHT22;10869;52.238;10.716;2023-04-07T20:22:55;5.30;99.90
21417;DHT22;10869;52.238;10.716;2023-04-07T20:25:21;5.40;99.90
21417;DHT22;10869;52.238;10.716;2023-04-07T20:27:47;5.40;99.90
21417;DHT22;10869;52.238;10.716;2023-04-07T20:30:14;5.40;99.90
21417;DHT22;10869;52.238;10.716;2023-04-07T20:32:41;5.40;99.90
21417;DHT22;10869;52.238;10.716;2023-04-07T20:35:16;5.40;99.90
21417;DHT22;10869;52.238;10.716;2023-04-07T20:37:42;5.40;99.90
21417;DHT22;10869;52.238;10.716;2023-04-07T20:40:13;5.40;99.90
21417;DHT22;10869;52.238;10.716;2023-04-07T20:42:41;5.40;99.90
21417;DHT22;10869;52.238;10.716;2023-04-07T20:47:42;5.40;99.90
21417;DHT22;10869;52.238;10.716;2023-04-07T20:50:15;5.40;99.90
21417;DHT22;10869;52.238;10.716;2023-04-07T20:52:44;5.40;99.90
21417;DHT22;10869;52.238;10.716;2023-04-07T20:55:11;5.40;99.90
21417;DHT22;10869;52.238;10.716;2023-04-07T20:57:37;5.40;99.90
21417;DHT22;10869;52.238;10.716;2023-04-07T21:00:06;5.40;99.90
21417;DHT22;10869;52.238;10.716;2023-04-07T21:02:33;5.40;99.90
21417;DHT22;10869;52.238;10.716;2023-04-07T21:04:59;5.30;99.90
21417;DHT22;10869;52.238;10.716;2023-04-07T21:07:26;5.30;99.90
21417;DHT22;10869;52.238;10.716;2023-04-07T21:09:51;5.30;99.90
21417;DHT22;10869;52.238;10.716;2023-04-07T21:12:17;5.40;99.90
21417;DHT22;10869;52.238;10.716;2023-04-07T21:14:44;5.40;99.90
21417;DHT22;10869;52.238;10.716;2023-04-07T21:17:10;5.30;99.90
21417;DHT22;10869;52.238;10.716;2023-04-07T21:19:36;5.30;99.90
21417;DHT22;10869;52.238;10.716;2023-04-07T21:22:02;5.40;99.90
21417;DHT22;10869;52.238;10.716;2023-04-07T21:24:29;5.30;99.90
21417;DHT22;10869;52.238;10.716;2023-04-07T21:26:56;5.30;99.90
21417;DHT22;10869;52.238;10.716;2023-04-07T21:29:23;5.40;99.90
21417;DHT22;10869;52.238;10.716;2023-04-07T21:31:49;5.40;99.90
21417;DHT22;10869;52.238;10.716;2023-04-07T21:34:15;5.40;99.90
21417;DHT22;10869;52.238;10.716;2023-04-07T21:36:40;5.40;99.90
21417;DHT22;10869;52.238;10.716;2023-04-07T21:39:09;5.40;99.90
21417;DHT22;10869;52.238;10.716;2023-04-07T21:42:01;5.30;99.90
21417;DHT22;10869;52.238;10.716;2023-04-07T21:44:41;5.30;99.90
21417;DHT22;10869;52.238;10.716;2023-04-07T21:50:35;5.20;99.90
21417;DHT22;10869;52.238;10.716;2023-04-07T21:53:03;5.20;99.90
21417;DHT22;10869;52.238;10.716;2023-04-07T21:55:32;5.10;99.90
21417;DHT22;10869;52.238;10.716;2023-04-07T21:57:59;5.20;99.90
21417;DHT22;10869;52.238;10.716;2023-04-07T22:00:28;5.10;99.90
21417;DHT22;10869;52.238;10.716;2023-04-07T22:02:56;5.10;99.90
21417;DHT22;10869;52.238;10.716;2023-04-07T22:05:28;5.20;99.90
21417;DHT22;10869;52.238;10.716;2023-04-07T22:07:59;5.20;99.90
21417;DHT22;10869;52.238;10.716;2023-04-07T22:10:28;5.10;99.90
21417;DHT22;10869;52.238;10.716;2023-04-07T22:12:56;5.20;99.90
21417;DHT22;10869;52.238;10.716;2023-04-07T22:15:26;5.10;99.90
21417;DHT22;10869;52.238;10.716;2023-04-07T22:17:55;5.10;99.90
21417;DHT22;10869;52.238;10.716;2023-04-07T22:20:22;5.10;99.90
21417;DHT22;10869;52.238;10.716;2023-04-07T22:22:50;5.10;99.90
21417;DHT22;10869;52.238;10.716;2023-04-07T22:25:16;5.10;99.90
21417;DHT22;10869;52.238;10.716;2023-04-07T22:27:41;5.10;99.90
21417;DHT22;10869;52.238;10.716;2023-04-07T22:30:08;5.10;99.90
21417;DHT22;10869;52.238;10.716;2023-04-07T22:32:35;5.10;99.90
21417;DHT22;10869;52.238;10.716;2023-04-07T22:35:01;5.10;99.90
21417;DHT22;10869;52.238;10.716;2023-04-07T22:37:27;5.10;99.90
21417;DHT22;10869;52.238;10.716;2023-04-07T22:39:53;5.00;99.90
21417;DHT22;10869;52.238;10.716;2023-04-07T22:42:19;5.00;99.90
21417;DHT22;10869;52.238;10.716;2023-04-07T22:44:45;5.00;99.90
21417;DHT22;10869;52.238;10.716;2023-04-07T22:47:10;5.00;99.90
21417;DHT22;10869;52.238;10.716;2023-04-07T22:49:36;5.00;99.90
21417;DHT22;10869;52.238;10.716;2023-04-07T22:52:02;5.00;99.90
21417;DHT22;10869;52.238;10.716;2023-04-07T22:54:28;5.00;99.90
21417;DHT22;10869;52.238;10.716;2023-04-07T22:56:54;5.10;99.90
21417;DHT22;10869;52.238;10.716;2023-04-07T22:59:20;5.10;99.90
